createdAt,value
2019-01-16T00:00:09.164Z,6.40
2019-01-16T00:03:05.406Z,3.62
2019-01-16T00:05:53.981Z,7.92
2019-01-16T00:08:40.813Z,4.25
2019-01-16T00:11:24.112Z,5.83
2019-01-16T00:14:15.925Z,5.50
2019-01-16T00:17:01.855Z,6.10
2019-01-16T00:19:50.108Z,4.20
2019-01-16T00:22:47.300Z,13.38
2019-01-16T00:25:28.002Z,5.22
2019-01-16T00:28:13.611Z,7.75
2019-01-16T00:30:52.423Z,5.40
2019-01-16T00:33:38.392Z,4.42
2019-01-16T00:36:26.647Z,5.03
2019-01-16T00:39:07.053Z,4.92
2019-01-16T00:41:53.796Z,5.60
2019-01-16T00:44:29.859Z,9.60
2019-01-16T00:47:16.466Z,4.40
2019-01-16T00:50:03.086Z,4.62
2019-01-16T00:52:48.446Z,5.40
2019-01-16T00:55:45.631Z,14.73
2019-01-16T00:58:31.540Z,9.20
2019-01-16T01:01:34.637Z,4.60
2019-01-16T01:04:28.840Z,5.67
2019-01-16T01:07:32.199Z,8.25
2019-01-16T01:10:29.768Z,6.40
2019-01-16T01:13:20.390Z,7.80
2019-01-16T01:16:12.582Z,8.68
2019-01-16T01:19:09.825Z,8.28
2019-01-16T01:21:56.708Z,6.40
2019-01-16T01:24:38.123Z,9.15
2019-01-16T01:27:16.106Z,9.15
2019-01-16T01:29:58.017Z,5.95
2019-01-16T01:32:53.488Z,8.73
2019-01-16T01:35:44.685Z,11.53
2019-01-16T01:38:43.745Z,6.67
2019-01-16T01:41:32.128Z,5.55
2019-01-16T01:44:10.634Z,8.63
2019-01-16T01:46:50.789Z,8.48
2019-01-16T01:49:37.793Z,6.05
2019-01-16T01:52:41.280Z,8.20
2019-01-16T01:55:20.673Z,7.95
2019-01-16T01:58:21.022Z,6.28
2019-01-16T02:01:09.453Z,7.17
2019-01-16T02:03:56.594Z,8.38
2019-01-16T02:06:35.108Z,8.37
2019-01-16T02:09:24.653Z,8.93
2019-01-16T02:12:19.553Z,11.50
2019-01-16T02:15:10.230Z,20.43
2019-01-16T02:17:53.349Z,8.70
2019-01-16T02:20:38.039Z,9.58
2019-01-16T02:23:22.101Z,11.33
2019-01-16T02:26:25.399Z,9.73
2019-01-16T02:29:19.087Z,10.28
2019-01-16T02:32:19.077Z,9.47
2019-01-16T02:35:09.245Z,6.90
2019-01-16T02:37:49.327Z,7.73
2019-01-16T02:40:28.804Z,8.78
2019-01-16T02:43:14.328Z,7.63
2019-01-16T02:46:02.368Z,8.20
2019-01-16T02:48:38.292Z,7.70
2019-01-16T02:51:29.349Z,8.67
2019-01-16T02:54:16.164Z,8.77
2019-01-16T02:57:06.082Z,9.50
2019-01-16T02:59:48.398Z,8.23
2019-01-16T03:02:42.434Z,8.10
2019-01-16T03:05:39.066Z,7.07
2019-01-16T03:08:14.952Z,6.00
2019-01-16T03:11:01.846Z,7.00
2019-01-16T03:13:38.567Z,8.87
2019-01-16T03:16:23.427Z,5.40
2019-01-16T03:19:10.245Z,6.10
2019-01-16T03:21:57.360Z,5.20
2019-01-16T03:24:42.778Z,6.47
2019-01-16T03:27:30.899Z,6.37
2019-01-16T03:30:22.153Z,8.85
2019-01-16T03:33:03.341Z,5.70
2019-01-16T03:35:50.170Z,5.47
2019-01-16T03:38:37.193Z,4.63
2019-01-16T03:41:29.355Z,5.47
2019-01-16T03:44:04.308Z,5.12
2019-01-16T03:46:48.791Z,5.78
2019-01-16T03:49:31.986Z,4.90
2019-01-16T03:52:26.208Z,4.27
2019-01-16T03:55:14.228Z,5.87
2019-01-16T03:57:57.557Z,4.10
2019-01-16T04:00:52.232Z,9.93
2019-01-16T04:03:35.613Z,3.98
2019-01-16T04:06:18.964Z,13.53
2019-01-16T04:09:06.574Z,6.07
2019-01-16T04:11:53.805Z,10.03
2019-01-16T04:14:39.700Z,5.12
2019-01-16T04:17:17.166Z,9.00
2019-01-16T04:19:54.320Z,7.47
2019-01-16T04:22:41.042Z,5.15
2019-01-16T04:25:27.742Z,3.35
2019-01-16T04:28:21.668Z,12.15
2019-01-16T04:31:12.697Z,16.27
2019-01-16T04:34:04.589Z,4.95
2019-01-16T04:37:01.528Z,6.65
2019-01-16T04:39:48.346Z,4.40
2019-01-16T04:42:39.494Z,3.40
2019-01-16T04:45:22.855Z,5.45
2019-01-16T04:48:19.957Z,4.83
2019-01-16T04:51:14.233Z,4.85
2019-01-16T04:54:03.874Z,5.80
2019-01-16T04:56:52.664Z,6.65
2019-01-16T04:59:40.114Z,3.92
2019-01-16T05:02:40.448Z,6.08
2019-01-16T05:05:34.488Z,4.92
2019-01-16T05:08:22.422Z,4.72
2019-01-16T05:11:10.382Z,3.60
2019-01-16T05:13:57.562Z,4.07
2019-01-16T05:16:49.353Z,6.17
2019-01-16T05:19:49.438Z,5.70
2019-01-16T05:22:35.084Z,10.03
2019-01-16T05:25:26.327Z,6.67
2019-01-16T05:28:08.856Z,4.83
2019-01-16T05:30:46.129Z,5.90
2019-01-16T05:33:24.832Z,6.67
2019-01-16T05:36:11.693Z,7.80
2019-01-16T05:39:05.549Z,7.07
2019-01-16T05:42:03.278Z,6.47
2019-01-16T05:44:57.074Z,7.93
2019-01-16T05:47:48.545Z,9.73
2019-01-16T05:50:39.359Z,6.73
2019-01-16T05:53:42.505Z,7.67
2019-01-16T05:56:24.204Z,5.93
2019-01-16T05:59:04.104Z,7.37
2019-01-16T06:01:51.993Z,6.73
2019-01-16T06:04:29.864Z,7.28
2019-01-16T06:07:23.260Z,7.27
2019-01-16T06:10:00.107Z,7.50
2019-01-16T06:13:06.772Z,6.77
2019-01-16T06:15:45.643Z,7.80
2019-01-16T06:18:36.857Z,8.40
2019-01-16T06:21:23.909Z,8.70
2019-01-16T06:24:21.051Z,8.40
2019-01-16T06:27:03.010Z,9.10
2019-01-16T06:29:39.563Z,8.93
2019-01-16T06:32:26.377Z,8.43
2019-01-16T06:35:09.083Z,8.90
2019-01-16T06:37:56.268Z,10.17
2019-01-16T06:40:47.425Z,7.70
2019-01-16T06:43:34.348Z,7.83
2019-01-16T06:46:15.039Z,8.57
2019-01-16T06:49:01.923Z,9.10
2019-01-16T06:51:45.596Z,8.47
2019-01-16T06:54:31.105Z,9.20
2019-01-16T06:57:07.228Z,10.33
2019-01-16T06:59:45.311Z,9.23
2019-01-16T07:02:46.129Z,8.10
2019-01-16T07:05:32.898Z,9.90
2019-01-16T07:08:09.422Z,9.57
2019-01-16T07:10:49.688Z,9.23
2019-01-16T07:13:45.235Z,9.83
2019-01-16T07:16:31.784Z,8.43
2019-01-16T07:19:13.723Z,8.27
2019-01-16T07:22:07.586Z,9.77
2019-01-16T07:24:48.447Z,9.07
2019-01-16T07:27:35.054Z,9.37
2019-01-16T07:30:40.019Z,9.70
2019-01-16T07:33:23.871Z,8.90
2019-01-16T07:36:05.964Z,9.93
2019-01-16T07:38:56.632Z,10.20
2019-01-16T07:41:44.555Z,10.70
2019-01-16T07:44:29.874Z,9.63
2019-01-16T07:47:15.046Z,9.30
2019-01-16T07:50:03.976Z,9.20
2019-01-16T07:53:01.019Z,9.40
2019-01-16T07:55:49.006Z,10.73
2019-01-16T07:58:36.985Z,8.85
2019-01-16T08:01:32.675Z,8.90
2019-01-16T08:04:19.596Z,8.50
2019-01-16T08:07:06.463Z,9.07
2019-01-16T08:09:55.280Z,7.73
2019-01-16T08:12:42.871Z,8.87
2019-01-16T08:15:49.463Z,8.33
2019-01-16T08:18:43.421Z,9.57
2019-01-16T08:21:36.216Z,9.27
2019-01-16T08:24:18.537Z,9.20
2019-01-16T08:27:04.939Z,9.77
2019-01-16T08:29:48.309Z,9.93
2019-01-16T08:32:26.347Z,10.33
2019-01-16T08:35:12.730Z,9.80
2019-01-16T08:38:06.881Z,10.13
2019-01-16T08:40:57.898Z,9.17
2019-01-16T08:43:53.805Z,9.30
2019-01-16T08:46:36.191Z,9.80
2019-01-16T08:49:28.202Z,9.30
2019-01-16T08:52:23.065Z,9.40
2019-01-16T08:55:10.048Z,10.20
2019-01-16T08:58:13.184Z,9.93
2019-01-16T09:01:04.062Z,10.60
2019-01-16T09:03:46.179Z,11.37
2019-01-16T09:06:33.697Z,9.77
2019-01-16T09:09:20.567Z,11.70
2019-01-16T09:12:05.778Z,11.80
2019-01-16T09:14:59.579Z,11.93
2019-01-16T09:18:02.735Z,10.90
2019-01-16T09:20:56.702Z,12.10
2019-01-16T09:23:51.000Z,12.10
2019-01-16T09:26:37.988Z,11.57
2019-01-16T09:29:18.295Z,12.77
2019-01-16T09:31:58.213Z,12.47
2019-01-16T09:34:45.199Z,12.43
2019-01-16T09:37:33.321Z,13.53
2019-01-16T09:40:24.824Z,11.73
2019-01-16T09:43:11.437Z,11.67
2019-01-16T09:46:14.860Z,11.63
2019-01-16T09:49:09.071Z,11.53
2019-01-16T09:51:49.842Z,10.50
2019-01-16T09:54:36.730Z,9.93
2019-01-16T09:57:31.056Z,10.60
2019-01-16T10:00:19.031Z,10.80
2019-01-16T10:03:12.721Z,12.70
2019-01-16T10:06:10.044Z,9.90
2019-01-16T10:09:08.964Z,10.80
2019-01-16T10:11:53.593Z,11.00
2019-01-16T10:14:42.461Z,11.37
2019-01-16T10:17:27.760Z,11.93
2019-01-16T10:20:15.675Z,11.97
2019-01-16T10:23:00.943Z,11.43
2019-01-16T10:25:47.903Z,12.10
2019-01-16T10:28:28.083Z,13.17
2019-01-16T10:31:18.862Z,13.70
2019-01-16T10:34:05.616Z,13.20
2019-01-16T10:36:52.556Z,15.37
2019-01-16T10:39:43.611Z,15.00
2019-01-16T10:42:24.272Z,13.70
2019-01-16T10:45:24.407Z,13.50
2019-01-16T10:48:15.064Z,13.17
2019-01-16T10:50:53.996Z,13.53
2019-01-16T10:53:32.368Z,12.80
2019-01-16T10:56:13.785Z,11.40
2019-01-16T10:58:58.781Z,11.27
2019-01-16T11:01:38.369Z,10.67
2019-01-16T11:04:26.441Z,10.03
2019-01-16T11:07:12.477Z,9.73
2019-01-16T11:09:53.476Z,10.70
2019-01-16T11:12:40.408Z,11.43
2019-01-16T11:15:44.240Z,10.63
2019-01-16T11:18:31.468Z,11.23
2019-01-16T11:21:13.619Z,12.40
2019-01-16T11:24:10.891Z,12.30
2019-01-16T11:26:58.956Z,12.33
2019-01-16T11:29:47.003Z,13.43
2019-01-16T11:32:34.953Z,14.23
2019-01-16T11:35:25.627Z,15.07
2019-01-16T11:38:12.652Z,15.33
2019-01-16T11:41:06.715Z,16.57
2019-01-16T11:43:57.447Z,14.80
2019-01-16T11:46:44.388Z,14.80
2019-01-16T11:49:31.419Z,15.00
2019-01-16T11:52:20.450Z,13.60
2019-01-16T11:55:17.719Z,14.17
2019-01-16T11:57:56.880Z,14.00
2019-01-16T12:00:39.985Z,13.67
2019-01-16T12:03:19.547Z,13.70
2019-01-16T12:06:07.638Z,15.43
2019-01-16T12:08:48.783Z,14.17
2019-01-16T12:11:36.120Z,14.07
2019-01-16T12:14:26.924Z,15.87
2019-01-16T12:17:33.067Z,14.37
2019-01-16T12:20:20.812Z,14.37
2019-01-16T12:23:08.840Z,14.53
2019-01-16T12:25:46.768Z,14.10
2019-01-16T12:28:33.663Z,13.83
2019-01-16T12:31:26.152Z,15.47
2019-01-16T12:34:17.017Z,14.00
2019-01-16T12:37:14.584Z,14.10
2019-01-16T12:40:01.554Z,14.03
2019-01-16T12:42:58.782Z,13.17
2019-01-16T12:45:50.828Z,13.10
2019-01-16T12:48:30.034Z,12.70
2019-01-16T12:51:09.473Z,13.53
2019-01-16T12:53:56.472Z,12.37
2019-01-16T12:56:42.280Z,14.47
2019-01-16T12:59:29.198Z,16.03
2019-01-16T13:02:10.087Z,14.53
2019-01-16T13:04:51.426Z,15.70
2019-01-16T13:07:37.659Z,14.40
2019-01-16T13:10:23.071Z,14.27
2019-01-16T13:13:03.921Z,15.63
2019-01-16T13:15:51.256Z,14.80
2019-01-16T13:18:42.191Z,15.93
2019-01-16T13:21:30.912Z,15.73
2019-01-16T13:24:12.026Z,15.40
2019-01-16T13:27:05.820Z,15.07
2019-01-16T13:29:44.822Z,18.63
2019-01-16T13:32:26.542Z,16.43
2019-01-16T13:35:23.537Z,16.20
2019-01-16T13:38:06.498Z,15.30
2019-01-16T13:40:43.196Z,20.43
2019-01-16T13:43:37.625Z,15.27
2019-01-16T13:46:24.484Z,18.40
2019-01-16T13:49:24.581Z,17.10
2019-01-16T13:52:19.088Z,15.57
2019-01-16T13:55:01.029Z,16.73
2019-01-16T13:57:52.162Z,17.07
2019-01-16T14:00:48.438Z,16.90
2019-01-16T14:03:39.244Z,16.73
2019-01-16T14:06:25.787Z,17.10
2019-01-16T14:09:16.782Z,17.90
2019-01-16T14:12:03.219Z,17.93
2019-01-16T14:15:01.671Z,17.07
2019-01-16T14:17:48.268Z,16.73
2019-01-16T14:20:34.857Z,16.40
2019-01-16T14:23:19.142Z,18.20
2019-01-16T14:26:06.102Z,17.50
2019-01-16T14:28:52.809Z,29.60
2019-01-16T14:31:35.370Z,17.93
2019-01-16T14:34:24.787Z,16.60
2019-01-16T14:37:23.159Z,17.17
2019-01-16T14:40:14.681Z,17.70
2019-01-16T14:43:05.730Z,18.77
2019-01-16T14:45:53.271Z,16.40
2019-01-16T14:48:56.364Z,18.73
2019-01-16T14:51:42.632Z,17.80
2019-01-16T14:54:31.421Z,17.97
2019-01-16T14:57:18.499Z,17.53
2019-01-16T15:00:10.470Z,16.27
2019-01-16T15:02:58.447Z,18.23
2019-01-16T15:05:52.161Z,17.80
2019-01-16T15:08:52.856Z,16.80
2019-01-16T15:11:59.640Z,18.00
2019-01-16T15:14:38.769Z,18.00
2019-01-16T15:17:28.191Z,16.87
2019-01-16T15:20:15.460Z,17.53
2019-01-16T15:22:51.201Z,17.10
2019-01-16T15:25:37.988Z,17.63
2019-01-16T15:28:20.177Z,17.00
2019-01-16T15:31:15.050Z,19.33
2019-01-16T15:34:05.070Z,17.50
2019-01-16T15:36:51.660Z,21.53
2019-01-16T15:39:49.604Z,17.07
2019-01-16T15:42:36.630Z,17.23
2019-01-16T15:45:17.664Z,17.70
2019-01-16T15:47:59.240Z,19.40
2019-01-16T15:50:46.458Z,17.23
2019-01-16T15:53:41.433Z,17.60
2019-01-16T15:56:29.591Z,20.40
2019-01-16T15:59:21.454Z,18.03
2019-01-16T16:02:08.541Z,17.27
2019-01-16T16:04:50.488Z,18.40
2019-01-16T16:07:47.269Z,20.07
2019-01-16T16:10:35.247Z,18.57
2019-01-16T16:13:21.873Z,18.97
2019-01-16T16:16:09.925Z,21.27
2019-01-16T16:18:52.203Z,23.57
2019-01-16T16:21:43.208Z,19.97
2019-01-16T16:24:30.239Z,18.90
2019-01-16T16:27:12.082Z,19.97
2019-01-16T16:30:00.460Z,20.00
2019-01-16T16:32:48.010Z,22.03
2019-01-16T16:35:35.216Z,20.00
2019-01-16T16:38:16.580Z,19.00
2019-01-16T16:41:07.591Z,21.37
2019-01-16T16:43:58.502Z,19.70
2019-01-16T16:46:54.124Z,20.30
2019-01-16T16:49:50.585Z,19.67
2019-01-16T16:52:39.850Z,16.70
2019-01-16T16:55:26.861Z,20.27
2019-01-16T16:58:13.543Z,21.57
2019-01-16T17:01:03.536Z,20.03
2019-01-16T17:03:50.499Z,21.43
2019-01-16T17:06:37.476Z,19.60
2019-01-16T17:09:33.058Z,21.80
2019-01-16T17:12:11.125Z,30.10
2019-01-16T17:14:53.867Z,19.80
2019-01-16T17:17:40.509Z,18.77
2019-01-16T17:20:27.862Z,20.30
2019-01-16T17:23:14.561Z,19.90
2019-01-16T17:25:56.375Z,19.43
2019-01-16T17:28:50.326Z,18.90
2019-01-16T17:31:31.300Z,19.00
2019-01-16T17:34:18.070Z,19.37
2019-01-16T17:37:03.272Z,18.10
2019-01-16T17:39:47.841Z,22.80
2019-01-16T17:42:27.611Z,23.80
2019-01-16T17:45:14.406Z,23.77
2019-01-16T17:47:56.513Z,19.20
2019-01-16T17:50:44.794Z,18.32
2019-01-16T17:53:47.889Z,21.73
2019-01-16T17:56:33.509Z,20.17
2019-01-16T17:59:19.935Z,18.95
2019-01-16T18:02:01.641Z,22.17
2019-01-16T18:04:38.100Z,23.42
2019-01-16T18:07:23.449Z,22.17
2019-01-16T18:10:05.494Z,33.88
2019-01-16T18:12:56.569Z,20.82
2019-01-16T18:15:56.477Z,17.85
2019-01-16T18:18:44.835Z,17.15
2019-01-16T18:21:26.495Z,20.25
2019-01-16T18:24:12.864Z,16.97
2019-01-16T18:26:55.412Z,17.82
2019-01-16T18:29:44.122Z,23.52
2019-01-16T18:32:44.227Z,22.17
2019-01-16T18:35:23.160Z,17.80
2019-01-16T18:38:09.840Z,16.57
2019-01-16T18:40:56.925Z,16.40
2019-01-16T18:43:44.030Z,20.37
2019-01-16T18:46:30.814Z,16.90
2019-01-16T18:49:17.608Z,14.83
2019-01-16T18:52:03.599Z,19.27
2019-01-16T18:54:40.584Z,22.95
2019-01-16T18:57:26.173Z,22.52
2019-01-16T19:00:17.276Z,24.90
2019-01-16T19:03:04.011Z,18.02
2019-01-16T19:05:54.333Z,24.60
2019-01-16T19:08:54.168Z,19.70
2019-01-16T19:11:32.208Z,26.15
2019-01-16T19:14:19.035Z,24.63
2019-01-16T19:17:06.088Z,19.00
2019-01-16T19:19:54.808Z,24.57
2019-01-16T19:22:43.231Z,15.80
2019-01-16T19:25:23.223Z,22.50
2019-01-16T19:28:10.257Z,24.92
2019-01-16T19:30:55.083Z,16.75
2019-01-16T19:33:43.408Z,26.70
2019-01-16T19:36:30.471Z,15.63
2019-01-16T19:39:17.291Z,26.55
2019-01-16T19:42:03.851Z,35.92
2019-01-16T19:44:55.591Z,32.35
2019-01-16T19:47:42.903Z,21.40
2019-01-16T19:50:32.488Z,28.65
2019-01-16T19:53:10.773Z,25.60
2019-01-16T19:55:57.317Z,23.45
2019-01-16T19:58:50.327Z,21.85
2019-01-16T20:01:50.958Z,33.88
2019-01-16T20:04:38.700Z,24.77
2019-01-16T20:07:35.960Z,24.70
2019-01-16T20:10:27.193Z,23.20
2019-01-16T20:13:15.429Z,25.77
2019-01-16T20:16:15.267Z,19.32
2019-01-16T20:18:57.431Z,25.30
2019-01-16T20:21:44.516Z,25.77
2019-01-16T20:24:45.635Z,27.45
2019-01-16T20:27:32.484Z,24.00
2019-01-16T20:30:18.795Z,21.70
2019-01-16T20:32:53.958Z,20.57
2019-01-16T20:35:31.139Z,17.77
2019-01-16T20:38:11.904Z,21.42
2019-01-16T20:41:15.352Z,18.00
2019-01-16T20:44:00.027Z,27.02
2019-01-16T20:46:48.106Z,18.85
2019-01-16T20:49:43.545Z,26.30
2019-01-16T20:52:32.366Z,19.35
2019-01-16T20:55:28.140Z,17.67
2019-01-16T20:58:14.899Z,20.72
2019-01-16T21:01:02.336Z,21.07
2019-01-16T21:03:56.939Z,30.48
2019-01-16T21:07:00.371Z,20.95
2019-01-16T21:09:35.635Z,18.15
2019-01-16T21:12:31.548Z,25.82
2019-01-16T21:15:16.824Z,17.00
2019-01-16T21:18:16.879Z,31.27
2019-01-16T21:20:54.855Z,23.42
2019-01-16T21:23:52.281Z,14.90
2019-01-16T21:26:38.748Z,15.93
2019-01-16T21:29:19.564Z,24.50
2019-01-16T21:31:58.588Z,22.62
2019-01-16T21:34:48.079Z,21.30
2019-01-16T21:37:31.087Z,36.20
2019-01-16T21:40:20.262Z,13.28
2019-01-16T21:43:08.200Z,23.02
2019-01-16T21:45:59.215Z,15.68
2019-01-16T21:48:59.562Z,16.95
2019-01-16T21:51:59.570Z,18.82
2019-01-16T21:54:56.352Z,15.85
2019-01-16T21:57:39.837Z,15.30
2019-01-16T22:00:47.149Z,22.98
2019-01-16T22:03:28.010Z,25.27
2019-01-16T22:06:16.032Z,19.07
2019-01-16T22:09:02.666Z,23.12
2019-01-16T22:11:49.725Z,16.85
2019-01-16T22:14:30.742Z,24.52
2019-01-16T22:17:17.692Z,17.65
2019-01-16T22:19:59.315Z,22.55
2019-01-16T22:22:46.228Z,20.40
2019-01-16T22:25:52.575Z,17.02
2019-01-16T22:28:47.502Z,16.27
2019-01-16T22:31:37.264Z,19.05
2019-01-16T22:34:19.941Z,25.32
2019-01-16T22:37:08.896Z,18.25
2019-01-16T22:39:50.284Z,15.48
2019-01-16T22:42:38.229Z,18.15
2019-01-16T22:45:25.907Z,17.05
2019-01-16T22:48:16.089Z,28.47
2019-01-16T22:51:03.057Z,20.90
2019-01-16T22:53:50.287Z,14.03
2019-01-16T22:56:39.604Z,15.60
2019-01-16T22:59:17.768Z,19.60
2019-01-16T23:01:57.036Z,15.58
2019-01-16T23:04:44.147Z,16.70
2019-01-16T23:07:38.460Z,18.73
2019-01-16T23:10:24.997Z,13.85
2019-01-16T23:13:09.208Z,18.30
2019-01-16T23:16:01.058Z,14.78
2019-01-16T23:18:42.714Z,18.17
2019-01-16T23:21:33.905Z,21.40
2019-01-16T23:24:17.772Z,10.98
2019-01-16T23:26:59.263Z,22.67
2019-01-16T23:29:53.439Z,18.70
2019-01-16T23:32:36.836Z,19.10
2019-01-16T23:35:25.521Z,18.42
2019-01-16T23:38:32.210Z,16.80
2019-01-16T23:41:17.590Z,26.15
2019-01-16T23:44:14.829Z,16.02
2019-01-16T23:46:51.224Z,19.45
2019-01-16T23:49:45.249Z,19.25
2019-01-16T23:52:23.223Z,21.40
2019-01-16T23:55:10.081Z,16.17
2019-01-16T23:57:56.715Z,16.37
